sensor_id;sensor_type;location;lat;lon;timestamp;pressure;altitude;pressure_sealevel;temperature
12854;BMP180;6495;51.808;7.478;2022-12-18T00:01:59;102186.00;;;-6.50
12854;BMP180;6495;51.808;7.478;2022-12-18T00:04:46;102182.00;;;-6.60
12854;BMP180;6495;51.808;7.478;2022-12-18T00:07:35;102189.00;;;-6.60
12854;BMP180;6495;51.808;7.478;2022-12-18T00:10:23;102195.00;;;-6.60
12854;BMP180;6495;51.808;7.478;2022-12-18T00:13:10;102194.00;;;-6.60
12854;BMP180;6495;51.808;7.478;2022-12-18T00:16:02;102205.00;;;-6.70
12854;BMP180;6495;51.808;7.478;2022-12-18T00:18:50;102215.00;;;-6.70
12854;BMP180;6495;51.808;7.478;2022-12-18T00:21:37;102206.00;;;-6.70
12854;BMP180;6495;51.808;7.478;2022-12-18T00:24:25;102206.00;;;-6.80
12854;BMP180;6495;51.808;7.478;2022-12-18T00:27:12;102213.00;;;-6.80
12854;BMP180;6495;51.808;7.478;2022-12-18T00:29:59;102212.00;;;-6.80
12854;BMP180;6495;51.808;7.478;2022-12-18T00:32:45;102204.00;;;-6.80
12854;BMP180;6495;51.808;7.478;2022-12-18T00:35:32;102208.00;;;-6.90
12854;BMP180;6495;51.808;7.478;2022-12-18T00:38:18;102207.00;;;-6.90
12854;BMP180;6495;51.808;7.478;2022-12-18T00:41:08;102193.00;;;-6.90
12854;BMP180;6495;51.808;7.478;2022-12-18T00:43:54;102191.00;;;-6.90
12854;BMP180;6495;51.808;7.478;2022-12-18T00:46:41;102192.00;;;-7.00
12854;BMP180;6495;51.808;7.478;2022-12-18T00:49:27;102207.00;;;-7.00
12854;BMP180;6495;51.808;7.478;2022-12-18T00:52:14;102205.00;;;-7.00
12854;BMP180;6495;51.808;7.478;2022-12-18T00:55:01;102199.00;;;-7.00
12854;BMP180;6495;51.808;7.478;2022-12-18T00:57:52;102190.00;;;-7.00
12854;BMP180;6495;51.808;7.478;2022-12-18T01:00:39;102198.00;;;-7.00
12854;BMP180;6495;51.808;7.478;2022-12-18T01:03:26;102200.00;;;-7.00
12854;BMP180;6495;51.808;7.478;2022-12-18T01:06:14;102191.00;;;-7.00
12854;BMP180;6495;51.808;7.478;2022-12-18T01:09:01;102192.00;;;-7.00
12854;BMP180;6495;51.808;7.478;2022-12-18T01:11:48;102191.00;;;-7.10
12854;BMP180;6495;51.808;7.478;2022-12-18T01:14:36;102183.00;;;-7.10
12854;BMP180;6495;51.808;7.478;2022-12-18T01:17:24;102189.00;;;-7.20
12854;BMP180;6495;51.808;7.478;2022-12-18T01:20:12;102185.00;;;-7.20
12854;BMP180;6495;51.808;7.478;2022-12-18T01:22:58;102185.00;;;-7.20
12854;BMP180;6495;51.808;7.478;2022-12-18T01:25:45;102185.00;;;-7.20
12854;BMP180;6495;51.808;7.478;2022-12-18T01:28:32;102191.00;;;-7.20
12854;BMP180;6495;51.808;7.478;2022-12-18T01:31:23;102185.00;;;-7.30
12854;BMP180;6495;51.808;7.478;2022-12-18T01:34:10;102191.00;;;-7.30
12854;BMP180;6495;51.808;7.478;2022-12-18T01:36:57;102190.00;;;-7.20
12854;BMP180;6495;51.808;7.478;2022-12-18T01:39:43;102176.00;;;-7.30
12854;BMP180;6495;51.808;7.478;2022-12-18T01:42:30;102171.00;;;-7.30
12854;BMP180;6495;51.808;7.478;2022-12-18T01:45:27;102180.00;;;-7.30
12854;BMP180;6495;51.808;7.478;2022-12-18T01:48:15;102179.00;;;-7.40
12854;BMP180;6495;51.808;7.478;2022-12-18T01:51:02;102182.00;;;-7.40
12854;BMP180;6495;51.808;7.478;2022-12-18T01:53:49;102192.00;;;-7.40
12854;BMP180;6495;51.808;7.478;2022-12-18T01:56:37;102189.00;;;-7.50
12854;BMP180;6495;51.808;7.478;2022-12-18T01:59:24;102189.00;;;-7.50
12854;BMP180;6495;51.808;7.478;2022-12-18T02:02:11;102185.00;;;-7.50
12854;BMP180;6495;51.808;7.478;2022-12-18T02:05:00;102187.00;;;-7.50
12854;BMP180;6495;51.808;7.478;2022-12-18T02:08:03;102176.00;;;-7.50
12854;BMP180;6495;51.808;7.478;2022-12-18T02:11:02;102177.00;;;-7.50
12854;BMP180;6495;51.808;7.478;2022-12-18T02:14:02;102178.00;;;-7.40
12854;BMP180;6495;51.808;7.478;2022-12-18T02:16:54;102161.00;;;-7.50
12854;BMP180;6495;51.808;7.478;2022-12-18T02:20:02;102152.00;;;-7.50
12854;BMP180;6495;51.808;7.478;2022-12-18T02:23:06;102155.00;;;-7.60
12854;BMP180;6495;51.808;7.478;2022-12-18T02:26:16;102161.00;;;-7.60
12854;BMP180;6495;51.808;7.478;2022-12-18T02:29:10;102162.00;;;-7.60
12854;BMP180;6495;51.808;7.478;2022-12-18T02:32:02;102162.00;;;-7.60
12854;BMP180;6495;51.808;7.478;2022-12-18T02:34:52;102161.00;;;-7.70
12854;BMP180;6495;51.808;7.478;2022-12-18T02:37:43;102144.00;;;-7.70
12854;BMP180;6495;51.808;7.478;2022-12-18T02:40:31;102149.00;;;-7.70
12854;BMP180;6495;51.808;7.478;2022-12-18T02:43:20;102151.00;;;-7.80
12854;BMP180;6495;51.808;7.478;2022-12-18T02:46:28;102156.00;;;-7.80
12854;BMP180;6495;51.808;7.478;2022-12-18T02:49:34;102161.00;;;-7.80
12854;BMP180;6495;51.808;7.478;2022-12-18T02:52:31;102157.00;;;-7.90
12854;BMP180;6495;51.808;7.478;2022-12-18T02:55:33;102156.00;;;-7.90
12854;BMP180;6495;51.808;7.478;2022-12-18T02:58:33;102164.00;;;-7.90
12854;BMP180;6495;51.808;7.478;2022-12-18T03:01:33;102157.00;;;-7.90
12854;BMP180;6495;51.808;7.478;2022-12-18T03:04:26;102147.00;;;-8.00
12854;BMP180;6495;51.808;7.478;2022-12-18T03:07:36;102150.00;;;-7.90
12854;BMP180;6495;51.808;7.478;2022-12-18T03:10:32;102139.00;;;-8.00
12854;BMP180;6495;51.808;7.478;2022-12-18T03:13:27;102146.00;;;-8.00
12854;BMP180;6495;51.808;7.478;2022-12-18T03:16:22;102148.00;;;-8.00
12854;BMP180;6495;51.808;7.478;2022-12-18T03:19:15;102152.00;;;-8.00
12854;BMP180;6495;51.808;7.478;2022-12-18T03:22:07;102146.00;;;-8.10
12854;BMP180;6495;51.808;7.478;2022-12-18T03:24:55;102149.00;;;-8.10
12854;BMP180;6495;51.808;7.478;2022-12-18T03:27:48;102151.00;;;-8.00
12854;BMP180;6495;51.808;7.478;2022-12-18T03:30:39;102148.00;;;-8.00
12854;BMP180;6495;51.808;7.478;2022-12-18T03:33:32;102152.00;;;-8.00
12854;BMP180;6495;51.808;7.478;2022-12-18T03:36:23;102156.00;;;-8.10
12854;BMP180;6495;51.808;7.478;2022-12-18T03:39:10;102146.00;;;-8.10
12854;BMP180;6495;51.808;7.478;2022-12-18T03:42:05;102151.00;;;-8.10
12854;BMP180;6495;51.808;7.478;2022-12-18T03:45:00;102146.00;;;-8.10
12854;BMP180;6495;51.808;7.478;2022-12-18T03:47:59;102135.00;;;-8.20
12854;BMP180;6495;51.808;7.478;2022-12-18T03:50:55;102141.00;;;-8.20
12854;BMP180;6495;51.808;7.478;2022-12-18T03:53:49;102130.00;;;-8.20
12854;BMP180;6495;51.808;7.478;2022-12-18T03:56:44;102145.00;;;-8.20
12854;BMP180;6495;51.808;7.478;2022-12-18T03:59:33;102140.00;;;-8.20
12854;BMP180;6495;51.808;7.478;2022-12-18T04:02:23;102141.00;;;-8.20
12854;BMP180;6495;51.808;7.478;2022-12-18T04:05:14;102146.00;;;-8.20
12854;BMP180;6495;51.808;7.478;2022-12-18T04:08:01;102140.00;;;-8.20
12854;BMP180;6495;51.808;7.478;2022-12-18T04:10:48;102138.00;;;-8.20
12854;BMP180;6495;51.808;7.478;2022-12-18T04:13:37;102126.00;;;-8.20
12854;BMP180;6495;51.808;7.478;2022-12-18T04:16:25;102121.00;;;-8.20
12854;BMP180;6495;51.808;7.478;2022-12-18T04:19:12;102126.00;;;-8.20
12854;BMP180;6495;51.808;7.478;2022-12-18T04:22:00;102120.00;;;-8.20
12854;BMP180;6495;51.808;7.478;2022-12-18T04:24:47;102121.00;;;-8.20
12854;BMP180;6495;51.808;7.478;2022-12-18T04:27:33;102107.00;;;-8.20
12854;BMP180;6495;51.808;7.478;2022-12-18T04:30:20;102114.00;;;-8.20
12854;BMP180;6495;51.808;7.478;2022-12-18T04:33:09;102128.00;;;-8.30
12854;BMP180;6495;51.808;7.478;2022-12-18T04:35:56;102111.00;;;-8.30
12854;BMP180;6495;51.808;7.478;2022-12-18T04:38:43;102109.00;;;-8.40
12854;BMP180;6495;51.808;7.478;2022-12-18T04:41:30;102114.00;;;-8.30
12854;BMP180;6495;51.808;7.478;2022-12-18T04:44:17;102120.00;;;-8.40
12854;BMP180;6495;51.808;7.478;2022-12-18T04:47:04;102134.00;;;-8.30
12854;BMP180;6495;51.808;7.478;2022-12-18T04:49:50;102122.00;;;-8.30
12854;BMP180;6495;51.808;7.478;2022-12-18T04:52:37;102114.00;;;-8.30
12854;BMP180;6495;51.808;7.478;2022-12-18T04:55:25;102120.00;;;-8.30
12854;BMP180;6495;51.808;7.478;2022-12-18T04:58:12;102118.00;;;-8.20
12854;BMP180;6495;51.808;7.478;2022-12-18T05:00:59;102121.00;;;-8.20
12854;BMP180;6495;51.808;7.478;2022-12-18T05:03:46;102125.00;;;-8.20
12854;BMP180;6495;51.808;7.478;2022-12-18T05:06:33;102126.00;;;-8.30
12854;BMP180;6495;51.808;7.478;2022-12-18T05:09:20;102114.00;;;-8.30
12854;BMP180;6495;51.808;7.478;2022-12-18T05:12:08;102121.00;;;-8.30
12854;BMP180;6495;51.808;7.478;2022-12-18T05:14:55;102112.00;;;-8.30
12854;BMP180;6495;51.808;7.478;2022-12-18T05:17:42;102105.00;;;-8.30
12854;BMP180;6495;51.808;7.478;2022-12-18T05:20:28;102095.00;;;-8.30
12854;BMP180;6495;51.808;7.478;2022-12-18T05:23:15;102093.00;;;-8.30
12854;BMP180;6495;51.808;7.478;2022-12-18T05:26:05;102098.00;;;-8.30
12854;BMP180;6495;51.808;7.478;2022-12-18T05:28:54;102106.00;;;-8.30
12854;BMP180;6495;51.808;7.478;2022-12-18T05:31:44;102111.00;;;-8.30
12854;BMP180;6495;51.808;7.478;2022-12-18T05:34:30;102116.00;;;-8.40
12854;BMP180;6495;51.808;7.478;2022-12-18T05:37:18;102108.00;;;-8.40
12854;BMP180;6495;51.808;7.478;2022-12-18T05:40:08;102103.00;;;-8.30
12854;BMP180;6495;51.808;7.478;2022-12-18T05:42:54;102111.00;;;-8.20
12854;BMP180;6495;51.808;7.478;2022-12-18T05:45:42;102116.00;;;-8.20
12854;BMP180;6495;51.808;7.478;2022-12-18T05:48:29;102099.00;;;-8.30
12854;BMP180;6495;51.808;7.478;2022-12-18T05:51:19;102100.00;;;-8.30
12854;BMP180;6495;51.808;7.478;2022-12-18T05:54:06;102109.00;;;-8.30
12854;BMP180;6495;51.808;7.478;2022-12-18T05:56:53;102121.00;;;-8.30
12854;BMP180;6495;51.808;7.478;2022-12-18T05:59:40;102118.00;;;-8.40
12854;BMP180;6495;51.808;7.478;2022-12-18T06:02:27;102114.00;;;-8.30
12854;BMP180;6495;51.808;7.478;2022-12-18T06:05:14;102130.00;;;-8.30
12854;BMP180;6495;51.808;7.478;2022-12-18T06:08:01;102128.00;;;-8.30
12854;BMP180;6495;51.808;7.478;2022-12-18T06:10:52;102134.00;;;-8.30
12854;BMP180;6495;51.808;7.478;2022-12-18T06:13:39;102130.00;;;-8.30
12854;BMP180;6495;51.808;7.478;2022-12-18T06:16:27;102137.00;;;-8.30
12854;BMP180;6495;51.808;7.478;2022-12-18T06:19:16;102133.00;;;-8.30
12854;BMP180;6495;51.808;7.478;2022-12-18T06:22:03;102149.00;;;-8.30
12854;BMP180;6495;51.808;7.478;2022-12-18T06:24:49;102155.00;;;-8.30
12854;BMP180;6495;51.808;7.478;2022-12-18T06:27:36;102153.00;;;-8.30
12854;BMP180;6495;51.808;7.478;2022-12-18T06:30:23;102161.00;;;-8.30
12854;BMP180;6495;51.808;7.478;2022-12-18T06:33:10;102149.00;;;-8.30
12854;BMP180;6495;51.808;7.478;2022-12-18T06:36:03;102145.00;;;-8.20
12854;BMP180;6495;51.808;7.478;2022-12-18T06:38:49;102155.00;;;-8.20
12854;BMP180;6495;51.808;7.478;2022-12-18T06:41:36;102156.00;;;-8.20
12854;BMP180;6495;51.808;7.478;2022-12-18T06:44:23;102151.00;;;-8.20
12854;BMP180;6495;51.808;7.478;2022-12-18T06:47:10;102142.00;;;-8.20
12854;BMP180;6495;51.808;7.478;2022-12-18T06:49:57;102152.00;;;-8.30
12854;BMP180;6495;51.808;7.478;2022-12-18T06:52:45;102151.00;;;-8.30
12854;BMP180;6495;51.808;7.478;2022-12-18T06:55:31;102150.00;;;-8.30
12854;BMP180;6495;51.808;7.478;2022-12-18T06:58:18;102153.00;;;-8.30
12854;BMP180;6495;51.808;7.478;2022-12-18T07:01:07;102140.00;;;-8.30
12854;BMP180;6495;51.808;7.478;2022-12-18T07:03:56;102153.00;;;-8.30
12854;BMP180;6495;51.808;7.478;2022-12-18T07:06:43;102140.00;;;-8.20
12854;BMP180;6495;51.808;7.478;2022-12-18T07:09:31;102139.00;;;-8.20
12854;BMP180;6495;51.808;7.478;2022-12-18T07:12:18;102148.00;;;-8.20
12854;BMP180;6495;51.808;7.478;2022-12-18T07:15:06;102141.00;;;-8.20
12854;BMP180;6495;51.808;7.478;2022-12-18T07:17:53;102139.00;;;-8.20
12854;BMP180;6495;51.808;7.478;2022-12-18T07:20:40;102128.00;;;-8.20
12854;BMP180;6495;51.808;7.478;2022-12-18T07:23:26;102142.00;;;-8.20
12854;BMP180;6495;51.808;7.478;2022-12-18T07:26:18;102127.00;;;-8.20
12854;BMP180;6495;51.808;7.478;2022-12-18T07:29:05;102120.00;;;-8.20
12854;BMP180;6495;51.808;7.478;2022-12-18T07:31:51;102132.00;;;-8.20
12854;BMP180;6495;51.808;7.478;2022-12-18T07:34:38;102125.00;;;-8.20
12854;BMP180;6495;51.808;7.478;2022-12-18T07:37:25;102129.00;;;-8.10
12854;BMP180;6495;51.808;7.478;2022-12-18T07:40:12;102117.00;;;-8.20
12854;BMP180;6495;51.808;7.478;2022-12-18T07:43:00;102120.00;;;-8.10
12854;BMP180;6495;51.808;7.478;2022-12-18T07:45:49;102116.00;;;-8.10
12854;BMP180;6495;51.808;7.478;2022-12-18T07:48:36;102125.00;;;-8.10
12854;BMP180;6495;51.808;7.478;2022-12-18T07:51:22;102127.00;;;-8.10
12854;BMP180;6495;51.808;7.478;2022-12-18T07:54:09;102122.00;;;-8.00
12854;BMP180;6495;51.808;7.478;2022-12-18T07:56:55;102134.00;;;-8.00
12854;BMP180;6495;51.808;7.478;2022-12-18T07:59:43;102131.00;;;-7.90
12854;BMP180;6495;51.808;7.478;2022-12-18T08:02:30;102129.00;;;-7.90
12854;BMP180;6495;51.808;7.478;2022-12-18T08:05:17;102120.00;;;-7.90
12854;BMP180;6495;51.808;7.478;2022-12-18T08:08:04;102126.00;;;-7.80
12854;BMP180;6495;51.808;7.478;2022-12-18T08:10:51;102144.00;;;-7.70
12854;BMP180;6495;51.808;7.478;2022-12-18T08:13:38;102129.00;;;-7.70
12854;BMP180;6495;51.808;7.478;2022-12-18T08:16:26;102139.00;;;-7.70
12854;BMP180;6495;51.808;7.478;2022-12-18T08:19:13;102132.00;;;-7.60
12854;BMP180;6495;51.808;7.478;2022-12-18T08:21:59;102131.00;;;-7.60
12854;BMP180;6495;51.808;7.478;2022-12-18T08:24:46;102122.00;;;-7.50
12854;BMP180;6495;51.808;7.478;2022-12-18T08:27:33;102116.00;;;-7.50
12854;BMP180;6495;51.808;7.478;2022-12-18T08:30:19;102121.00;;;-7.40
12854;BMP180;6495;51.808;7.478;2022-12-18T08:33:08;102111.00;;;-7.40
12854;BMP180;6495;51.808;7.478;2022-12-18T08:35:55;102106.00;;;-7.40
12854;BMP180;6495;51.808;7.478;2022-12-18T08:38:41;102100.00;;;-7.30
12854;BMP180;6495;51.808;7.478;2022-12-18T08:41:28;102083.00;;;-7.30
12854;BMP180;6495;51.808;7.478;2022-12-18T08:44:15;102072.00;;;-7.20
12854;BMP180;6495;51.808;7.478;2022-12-18T08:47:20;102066.00;;;-7.20
12854;BMP180;6495;51.808;7.478;2022-12-18T08:50:09;102054.00;;;-7.10
12854;BMP180;6495;51.808;7.478;2022-12-18T08:52:57;102063.00;;;-7.00
12854;BMP180;6495;51.808;7.478;2022-12-18T08:55:43;102069.00;;;-6.90
12854;BMP180;6495;51.808;7.478;2022-12-18T08:58:35;102081.00;;;-6.80
12854;BMP180;6495;51.808;7.478;2022-12-18T09:01:22;102083.00;;;-6.70
12854;BMP180;6495;51.808;7.478;2022-12-18T09:04:09;102085.00;;;-6.60
12854;BMP180;6495;51.808;7.478;2022-12-18T09:06:58;102091.00;;;-6.60
12854;BMP180;6495;51.808;7.478;2022-12-18T09:09:44;102086.00;;;-6.50
12854;BMP180;6495;51.808;7.478;2022-12-18T09:12:32;102080.00;;;-6.40
12854;BMP180;6495;51.808;7.478;2022-12-18T09:15:19;102081.00;;;-6.40
12854;BMP180;6495;51.808;7.478;2022-12-18T09:18:06;102079.00;;;-6.30
12854;BMP180;6495;51.808;7.478;2022-12-18T09:20:53;102077.00;;;-6.30
12854;BMP180;6495;51.808;7.478;2022-12-18T09:23:41;102068.00;;;-6.20
12854;BMP180;6495;51.808;7.478;2022-12-18T09:26:28;102084.00;;;-6.10
12854;BMP180;6495;51.808;7.478;2022-12-18T09:29:15;102086.00;;;-6.00
12854;BMP180;6495;51.808;7.478;2022-12-18T09:32:06;102084.00;;;-5.90
12854;BMP180;6495;51.808;7.478;2022-12-18T09:34:52;102082.00;;;-5.90
12854;BMP180;6495;51.808;7.478;2022-12-18T09:37:39;102084.00;;;-5.70
12854;BMP180;6495;51.808;7.478;2022-12-18T09:40:41;102094.00;;;-5.70
12854;BMP180;6495;51.808;7.478;2022-12-18T09:43:46;102094.00;;;-5.60
12854;BMP180;6495;51.808;7.478;2022-12-18T09:46:39;102086.00;;;-5.60
12854;BMP180;6495;51.808;7.478;2022-12-18T09:49:30;102088.00;;;-5.50
12854;BMP180;6495;51.808;7.478;2022-12-18T09:52:24;102094.00;;;-5.40
12854;BMP180;6495;51.808;7.478;2022-12-18T09:55:20;102092.00;;;-5.30
12854;BMP180;6495;51.808;7.478;2022-12-18T09:58:17;102084.00;;;-5.20
12854;BMP180;6495;51.808;7.478;2022-12-18T10:01:10;102073.00;;;-5.10
12854;BMP180;6495;51.808;7.478;2022-12-18T10:03:57;102080.00;;;-5.00
12854;BMP180;6495;51.808;7.478;2022-12-18T10:06:53;102075.00;;;-4.80
12854;BMP180;6495;51.808;7.478;2022-12-18T10:09:52;102087.00;;;-4.70
12854;BMP180;6495;51.808;7.478;2022-12-18T10:12:47;102077.00;;;-4.60
12854;BMP180;6495;51.808;7.478;2022-12-18T10:15:50;102081.00;;;-4.40
12854;BMP180;6495;51.808;7.478;2022-12-18T10:19:03;102087.00;;;-4.30
12854;BMP180;6495;51.808;7.478;2022-12-18T10:22:07;102074.00;;;-4.20
12854;BMP180;6495;51.808;7.478;2022-12-18T10:25:03;102056.00;;;-4.10
12854;BMP180;6495;51.808;7.478;2022-12-18T10:27:56;102063.00;;;-4.00
12854;BMP180;6495;51.808;7.478;2022-12-18T10:30:47;102060.00;;;-3.90
12854;BMP180;6495;51.808;7.478;2022-12-18T10:33:34;102055.00;;;-3.80
12854;BMP180;6495;51.808;7.478;2022-12-18T10:36:23;102056.00;;;-3.70
12854;BMP180;6495;51.808;7.478;2022-12-18T10:39:18;102046.00;;;-3.60
12854;BMP180;6495;51.808;7.478;2022-12-18T10:42:15;102032.00;;;-3.60
12854;BMP180;6495;51.808;7.478;2022-12-18T10:45:10;102033.00;;;-3.50
12854;BMP180;6495;51.808;7.478;2022-12-18T10:47:59;102029.00;;;-3.40
12854;BMP180;6495;51.808;7.478;2022-12-18T10:50:49;102037.00;;;-3.40
12854;BMP180;6495;51.808;7.478;2022-12-18T10:54:01;102019.00;;;-3.40
12854;BMP180;6495;51.808;7.478;2022-12-18T10:56:50;102021.00;;;-3.30
12854;BMP180;6495;51.808;7.478;2022-12-18T10:59:52;102020.00;;;-3.30
12854;BMP180;6495;51.808;7.478;2022-12-18T11:02:38;102014.00;;;-3.30
12854;BMP180;6495;51.808;7.478;2022-12-18T11:05:31;102011.00;;;-3.20
12854;BMP180;6495;51.808;7.478;2022-12-18T11:08:21;102002.00;;;-3.10
12854;BMP180;6495;51.808;7.478;2022-12-18T11:11:19;101988.00;;;-3.10
12854;BMP180;6495;51.808;7.478;2022-12-18T11:14:15;101986.00;;;-3.00
12854;BMP180;6495;51.808;7.478;2022-12-18T11:17:04;101990.00;;;-2.90
12854;BMP180;6495;51.808;7.478;2022-12-18T11:20:32;101990.00;;;-2.90
12854;BMP180;6495;51.808;7.478;2022-12-18T11:23:22;101993.00;;;-2.80
12854;BMP180;6495;51.808;7.478;2022-12-18T11:26:10;101990.00;;;-2.80
12854;BMP180;6495;51.808;7.478;2022-12-18T11:29:10;101983.00;;;-2.70
12854;BMP180;6495;51.808;7.478;2022-12-18T11:32:34;101980.00;;;-2.70
12854;BMP180;6495;51.808;7.478;2022-12-18T11:35:42;101986.00;;;-2.70
12854;BMP180;6495;51.808;7.478;2022-12-18T11:38:35;101973.00;;;-2.70
12854;BMP180;6495;51.808;7.478;2022-12-18T11:41:30;101981.00;;;-2.60
12854;BMP180;6495;51.808;7.478;2022-12-18T11:44:42;101974.00;;;-2.60
12854;BMP180;6495;51.808;7.478;2022-12-18T11:47:38;101986.00;;;-2.50
12854;BMP180;6495;51.808;7.478;2022-12-18T11:50:32;101984.00;;;-2.50
12854;BMP180;6495;51.808;7.478;2022-12-18T11:53:22;101979.00;;;-2.50
12854;BMP180;6495;51.808;7.478;2022-12-18T11:56:29;101954.00;;;-2.50
12854;BMP180;6495;51.808;7.478;2022-12-18T11:59:27;101941.00;;;-2.40
12854;BMP180;6495;51.808;7.478;2022-12-18T12:02:38;101935.00;;;-2.40
12854;BMP180;6495;51.808;7.478;2022-12-18T12:05:46;101938.00;;;-2.40
12854;BMP180;6495;51.808;7.478;2022-12-18T12:08:54;101930.00;;;-2.40
12854;BMP180;6495;51.808;7.478;2022-12-18T12:12:07;101945.00;;;-2.40
12854;BMP180;6495;51.808;7.478;2022-12-18T12:15:06;101929.00;;;-2.40
12854;BMP180;6495;51.808;7.478;2022-12-18T12:18:12;101928.00;;;-2.30
12854;BMP180;6495;51.808;7.478;2022-12-18T12:21:09;101927.00;;;-2.30
12854;BMP180;6495;51.808;7.478;2022-12-18T12:24:16;101918.00;;;-2.30
12854;BMP180;6495;51.808;7.478;2022-12-18T12:27:17;101916.00;;;-2.30
12854;BMP180;6495;51.808;7.478;2022-12-18T12:30:09;101915.00;;;-2.30
12854;BMP180;6495;51.808;7.478;2022-12-18T12:33:17;101911.00;;;-2.20
12854;BMP180;6495;51.808;7.478;2022-12-18T12:36:17;101903.00;;;-2.20
12854;BMP180;6495;51.808;7.478;2022-12-18T12:39:13;101902.00;;;-2.20
12854;BMP180;6495;51.808;7.478;2022-12-18T12:42:04;101889.00;;;-2.10
12854;BMP180;6495;51.808;7.478;2022-12-18T12:45:26;101886.00;;;-2.10
12854;BMP180;6495;51.808;7.478;2022-12-18T12:48:24;101880.00;;;-2.00
12854;BMP180;6495;51.808;7.478;2022-12-18T12:51:19;101876.00;;;-2.00
12854;BMP180;6495;51.808;7.478;2022-12-18T12:54:16;101882.00;;;-2.00
12854;BMP180;6495;51.808;7.478;2022-12-18T12:57:10;101879.00;;;-2.00
12854;BMP180;6495;51.808;7.478;2022-12-18T13:00:04;101874.00;;;-2.00
12854;BMP180;6495;51.808;7.478;2022-12-18T13:03:04;101878.00;;;-2.00
12854;BMP180;6495;51.808;7.478;2022-12-18T13:06:05;101865.00;;;-2.00
12854;BMP180;6495;51.808;7.478;2022-12-18T13:08:58;101860.00;;;-2.00
12854;BMP180;6495;51.808;7.478;2022-12-18T13:11:47;101852.00;;;-2.00
12854;BMP180;6495;51.808;7.478;2022-12-18T13:14:52;101856.00;;;-1.90
12854;BMP180;6495;51.808;7.478;2022-12-18T13:17:39;101852.00;;;-1.90
12854;BMP180;6495;51.808;7.478;2022-12-18T13:20:34;101870.00;;;-1.80
12854;BMP180;6495;51.808;7.478;2022-12-18T13:23:32;101862.00;;;-1.80
12854;BMP180;6495;51.808;7.478;2022-12-18T13:26:31;101860.00;;;-1.80
12854;BMP180;6495;51.808;7.478;2022-12-18T13:29:44;101858.00;;;-1.70
12854;BMP180;6495;51.808;7.478;2022-12-18T13:32:31;101845.00;;;-1.70
12854;BMP180;6495;51.808;7.478;2022-12-18T13:35:39;101855.00;;;-1.70
12854;BMP180;6495;51.808;7.478;2022-12-18T13:38:34;101841.00;;;-1.70
12854;BMP180;6495;51.808;7.478;2022-12-18T13:41:25;101845.00;;;-1.70
12854;BMP180;6495;51.808;7.478;2022-12-18T13:44:24;101850.00;;;-1.60
12854;BMP180;6495;51.808;7.478;2022-12-18T13:47:31;101847.00;;;-1.60
12854;BMP180;6495;51.808;7.478;2022-12-18T13:50:25;101841.00;;;-1.60
12854;BMP180;6495;51.808;7.478;2022-12-18T13:53:26;101843.00;;;-1.60
12854;BMP180;6495;51.808;7.478;2022-12-18T13:56:16;101848.00;;;-1.60
12854;BMP180;6495;51.808;7.478;2022-12-18T13:59:17;101843.00;;;-1.50
12854;BMP180;6495;51.808;7.478;2022-12-18T14:02:16;101843.00;;;-1.50
12854;BMP180;6495;51.808;7.478;2022-12-18T14:05:04;101841.00;;;-1.50
12854;BMP180;6495;51.808;7.478;2022-12-18T14:07:52;101838.00;;;-1.50
12854;BMP180;6495;51.808;7.478;2022-12-18T14:10:41;101835.00;;;-1.40
12854;BMP180;6495;51.808;7.478;2022-12-18T14:13:38;101831.00;;;-1.40
12854;BMP180;6495;51.808;7.478;2022-12-18T14:16:28;101818.00;;;-1.40
12854;BMP180;6495;51.808;7.478;2022-12-18T14:19:18;101819.00;;;-1.40
12854;BMP180;6495;51.808;7.478;2022-12-18T14:22:05;101816.00;;;-1.40
12854;BMP180;6495;51.808;7.478;2022-12-18T14:25:14;101812.00;;;-1.40
12854;BMP180;6495;51.808;7.478;2022-12-18T14:28:13;101806.00;;;-1.40
12854;BMP180;6495;51.808;7.478;2022-12-18T14:31:00;101800.00;;;-1.40
12854;BMP180;6495;51.808;7.478;2022-12-18T14:33:47;101788.00;;;-1.40
12854;BMP180;6495;51.808;7.478;2022-12-18T14:36:35;101777.00;;;-1.40
12854;BMP180;6495;51.808;7.478;2022-12-18T14:39:21;101776.00;;;-1.40
12854;BMP180;6495;51.808;7.478;2022-12-18T14:42:11;101777.00;;;-1.40
12854;BMP180;6495;51.808;7.478;2022-12-18T14:45:33;101770.00;;;-1.40
12854;BMP180;6495;51.808;7.478;2022-12-18T14:48:38;101758.00;;;-1.40
12854;BMP180;6495;51.808;7.478;2022-12-18T14:51:32;101748.00;;;-1.40
12854;BMP180;6495;51.808;7.478;2022-12-18T14:54:22;101745.00;;;-1.30
12854;BMP180;6495;51.808;7.478;2022-12-18T14:57:21;101739.00;;;-1.30
12854;BMP180;6495;51.808;7.478;2022-12-18T15:00:18;101734.00;;;-1.30
12854;BMP180;6495;51.808;7.478;2022-12-18T15:03:08;101744.00;;;-1.30
12854;BMP180;6495;51.808;7.478;2022-12-18T15:05:55;101741.00;;;-1.30
12854;BMP180;6495;51.808;7.478;2022-12-18T15:08:43;101723.00;;;-1.30
12854;BMP180;6495;51.808;7.478;2022-12-18T15:11:45;101713.00;;;-1.30
12854;BMP180;6495;51.808;7.478;2022-12-18T15:14:42;101721.00;;;-1.30
12854;BMP180;6495;51.808;7.478;2022-12-18T15:17:29;101723.00;;;-1.30
12854;BMP180;6495;51.808;7.478;2022-12-18T15:20:16;101728.00;;;-1.30
12854;BMP180;6495;51.808;7.478;2022-12-18T15:23:03;101740.00;;;-1.20
12854;BMP180;6495;51.808;7.478;2022-12-18T15:26:00;101737.00;;;-1.20
12854;BMP180;6495;51.808;7.478;2022-12-18T15:28:51;101717.00;;;-1.20
12854;BMP180;6495;51.808;7.478;2022-12-18T15:31:38;101727.00;;;-1.10
12854;BMP180;6495;51.808;7.478;2022-12-18T15:34:24;101716.00;;;-1.10
12854;BMP180;6495;51.808;7.478;2022-12-18T15:37:14;101706.00;;;-1.10
12854;BMP180;6495;51.808;7.478;2022-12-18T15:40:01;101696.00;;;-1.10
12854;BMP180;6495;51.808;7.478;2022-12-18T15:42:51;101702.00;;;-1.10
12854;BMP180;6495;51.808;7.478;2022-12-18T15:45:58;101704.00;;;-1.10
12854;BMP180;6495;51.808;7.478;2022-12-18T15:48:47;101699.00;;;-1.00
12854;BMP180;6495;51.808;7.478;2022-12-18T15:51:36;101709.00;;;-1.00
12854;BMP180;6495;51.808;7.478;2022-12-18T15:54:24;101711.00;;;-1.00
12854;BMP180;6495;51.808;7.478;2022-12-18T15:57:26;101702.00;;;-0.90
12854;BMP180;6495;51.808;7.478;2022-12-18T16:00:14;101696.00;;;-1.00
12854;BMP180;6495;51.808;7.478;2022-12-18T16:03:02;101692.00;;;-0.90
12854;BMP180;6495;51.808;7.478;2022-12-18T16:05:50;101691.00;;;-0.90
12854;BMP180;6495;51.808;7.478;2022-12-18T16:08:36;101682.00;;;-0.90
12854;BMP180;6495;51.808;7.478;2022-12-18T16:11:28;101690.00;;;-0.90
12854;BMP180;6495;51.808;7.478;2022-12-18T16:14:29;101684.00;;;-0.90
12854;BMP180;6495;51.808;7.478;2022-12-18T16:17:17;101680.00;;;-0.90
12854;BMP180;6495;51.808;7.478;2022-12-18T16:20:12;101683.00;;;-0.80
12854;BMP180;6495;51.808;7.478;2022-12-18T16:23:00;101691.00;;;-0.80
12854;BMP180;6495;51.808;7.478;2022-12-18T16:25:47;101691.00;;;-0.80
12854;BMP180;6495;51.808;7.478;2022-12-18T16:28:34;101679.00;;;-0.80
12854;BMP180;6495;51.808;7.478;2022-12-18T16:31:21;101683.00;;;-0.80